createdAt,value
2022-09-15T00:00:01.055Z,92.57
2022-09-15T00:02:27.778Z,91.75
2022-09-15T00:04:54.448Z,91.41
2022-09-15T00:07:21.056Z,91.06
2022-09-15T00:09:47.646Z,91.30
2022-09-15T00:12:14.281Z,91.12
2022-09-15T00:14:41.431Z,91.68
2022-09-15T00:17:08.220Z,92.08
2022-09-15T00:19:35.659Z,91.84
2022-09-15T00:22:02.257Z,92.32
2022-09-15T00:24:28.943Z,92.21
2022-09-15T00:26:56.699Z,92.24
2022-09-15T00:29:23.362Z,92.96
2022-09-15T00:31:50.365Z,92.67
2022-09-15T00:34:17.049Z,92.01
2022-09-15T00:36:43.694Z,91.66
2022-09-15T00:39:10.387Z,90.96
2022-09-15T00:41:39.663Z,89.98
2022-09-15T00:44:35.357Z,89.56
2022-09-15T00:47:18.762Z,90.26
2022-09-15T00:49:48.188Z,90.18
2022-09-15T00:52:34.549Z,90.44
2022-09-15T00:55:11.819Z,90.79
2022-09-15T00:57:49.609Z,90.95
2022-09-15T01:00:18.810Z,91.04
2022-09-15T01:02:47.327Z,90.40
2022-09-15T01:05:17.540Z,92.21
2022-09-15T01:07:51.709Z,91.10
2022-09-15T01:10:34.324Z,91.24
2022-09-15T01:13:04.305Z,90.66
2022-09-15T01:16:09.633Z,91.48
2022-09-15T01:19:01.288Z,90.66
2022-09-15T01:21:52.216Z,89.81
2022-09-15T01:24:30.266Z,88.88
2022-09-15T01:27:18.539Z,89.03
2022-09-15T01:29:52.911Z,88.07
2022-09-15T01:32:45.004Z,86.13
2022-09-15T01:35:28.310Z,86.97
2022-09-15T01:38:08.412Z,85.84
2022-09-15T01:40:55.654Z,85.64
2022-09-15T01:43:25.643Z,86.10
2022-09-15T01:45:53.250Z,87.58
2022-09-15T01:48:23.366Z,86.82
2022-09-15T01:50:56.000Z,85.98
2022-09-15T01:53:24.068Z,85.19
2022-09-15T01:56:09.589Z,83.52
2022-09-15T01:58:39.473Z,84.13
2022-09-15T02:01:12.797Z,84.68
2022-09-15T02:03:55.999Z,85.22
2022-09-15T02:06:33.738Z,85.76
2022-09-15T02:09:11.249Z,86.51
2022-09-15T02:11:45.877Z,86.66
2022-09-15T02:14:17.267Z,86.41
2022-09-15T02:16:48.126Z,86.35
2022-09-15T02:19:31.072Z,86.25
2022-09-15T02:22:07.659Z,86.42
2022-09-15T02:24:42.313Z,86.71
2022-09-15T02:27:16.733Z,86.63
2022-09-15T02:29:47.719Z,87.62
2022-09-15T02:32:17.804Z,88.11
2022-09-15T02:34:48.277Z,87.98
2022-09-15T02:37:15.064Z,87.61
2022-09-15T02:39:47.920Z,86.06
2022-09-15T02:42:24.511Z,87.05
2022-09-15T02:44:51.385Z,86.32
2022-09-15T02:47:18.227Z,85.57
2022-09-15T02:49:44.829Z,85.71
2022-09-15T02:52:11.905Z,85.11
2022-09-15T02:54:38.568Z,85.07
2022-09-15T02:57:05.790Z,84.99
2022-09-15T02:59:52.667Z,86.32
2022-09-15T03:02:20.544Z,85.80
2022-09-15T03:04:48.433Z,85.40
2022-09-15T03:07:16.108Z,85.98
2022-09-15T03:09:42.773Z,86.32
2022-09-15T03:12:09.542Z,85.98
2022-09-15T03:14:36.227Z,86.03
2022-09-15T03:17:03.185Z,86.00
2022-09-15T03:19:29.924Z,86.07
2022-09-15T03:21:56.675Z,86.05
2022-09-15T03:24:23.341Z,85.76
2022-09-15T03:26:50.115Z,85.68
2022-09-15T03:29:16.942Z,85.91
2022-09-15T03:31:43.586Z,85.67
2022-09-15T03:34:10.257Z,84.81
2022-09-15T03:36:36.888Z,84.44
2022-09-15T03:39:03.628Z,84.10
2022-09-15T03:41:30.337Z,83.74
2022-09-15T03:43:56.925Z,83.01
2022-09-15T03:46:23.714Z,83.10
2022-09-15T03:48:50.357Z,82.50
2022-09-15T03:51:16.941Z,82.08
2022-09-15T03:53:43.782Z,81.08
2022-09-15T03:56:27.373Z,81.65
2022-09-15T03:58:54.427Z,83.60
2022-09-15T04:01:21.536Z,84.66
2022-09-15T04:03:51.076Z,85.39
2022-09-15T04:06:20.274Z,84.52
2022-09-15T04:08:47.661Z,82.88
2022-09-15T04:11:14.776Z,82.59
2022-09-15T04:13:42.469Z,85.73
2022-09-15T04:16:12.715Z,85.09
2022-09-15T04:18:39.676Z,87.80
2022-09-15T04:21:10.644Z,86.34
2022-09-15T04:23:37.641Z,85.86
2022-09-15T04:26:07.309Z,85.83
2022-09-15T04:28:37.204Z,85.48
2022-09-15T04:31:06.509Z,85.80
2022-09-15T04:33:33.873Z,86.08
2022-09-15T04:36:01.865Z,86.74
2022-09-15T04:38:28.913Z,87.63
2022-09-15T04:40:55.501Z,89.04
2022-09-15T04:43:22.511Z,89.05
2022-09-15T04:45:49.507Z,89.24
2022-09-15T04:48:16.138Z,89.33
2022-09-15T04:50:43.043Z,90.08
2022-09-15T04:53:09.659Z,89.60
2022-09-15T04:55:37.079Z,89.32
2022-09-15T04:58:04.112Z,87.30
2022-09-15T05:00:32.749Z,87.98
2022-09-15T05:02:59.787Z,88.35
2022-09-15T05:05:26.969Z,88.33
2022-09-15T05:07:53.586Z,88.83
2022-09-15T05:10:20.552Z,89.60
2022-09-15T05:12:47.137Z,90.50
2022-09-15T05:15:13.778Z,89.85
2022-09-15T05:17:40.616Z,89.77
2022-09-15T05:20:07.589Z,89.91
2022-09-15T05:22:36.291Z,89.69
2022-09-15T05:25:06.349Z,90.50
2022-09-15T05:27:33.889Z,90.00
2022-09-15T05:30:31.745Z,90.00
2022-09-15T05:32:47.177Z,91.32
2022-09-15T05:35:13.846Z,90.37
2022-09-15T05:37:40.457Z,90.68
2022-09-15T05:40:08.710Z,89.94
2022-09-15T05:42:35.570Z,91.77
2022-09-15T05:45:02.178Z,92.62
2022-09-15T05:47:28.838Z,92.75
2022-09-15T05:49:55.618Z,91.70
2022-09-15T05:52:22.220Z,91.01
2022-09-15T05:54:48.852Z,90.76
2022-09-15T05:57:15.529Z,90.82
2022-09-15T05:59:43.867Z,91.35
2022-09-15T06:02:11.572Z,91.93
2022-09-15T06:04:38.927Z,91.70
2022-09-15T06:07:05.776Z,90.85
2022-09-15T06:09:32.374Z,90.21
2022-09-15T06:11:59.005Z,90.23
2022-09-15T06:14:25.739Z,90.08
2022-09-15T06:16:52.429Z,90.70
2022-09-15T06:19:19.418Z,90.04
2022-09-15T06:21:46.425Z,89.99
2022-09-15T06:24:13.104Z,89.39
2022-09-15T06:26:39.824Z,89.24
2022-09-15T06:29:06.544Z,88.11
2022-09-15T06:31:34.160Z,85.46
2022-09-15T06:34:03.765Z,83.82
2022-09-15T06:36:31.033Z,81.18
2022-09-15T06:38:58.507Z,78.75
2022-09-15T06:41:25.893Z,77.17
2022-09-15T06:43:53.165Z,76.16
2022-09-15T06:46:22.512Z,77.77
2022-09-15T06:48:51.162Z,75.04
2022-09-15T06:51:19.688Z,69.39
2022-09-15T06:53:46.992Z,67.87
2022-09-15T06:56:23.874Z,67.61
2022-09-15T06:58:51.041Z,66.52
2022-09-15T07:01:27.120Z,64.99
2022-09-15T07:03:54.417Z,61.54
2022-09-15T07:06:22.422Z,55.52
2022-09-15T07:08:49.935Z,50.82
2022-09-15T07:11:18.515Z,52.51
2022-09-15T07:13:45.327Z,60.35
2022-09-15T07:16:13.385Z,61.03
2022-09-15T07:18:43.208Z,60.75
2022-09-15T07:21:15.370Z,64.49
2022-09-15T07:23:42.460Z,65.11
2022-09-15T07:26:11.898Z,64.35
2022-09-15T07:28:39.906Z,62.69
2022-09-15T07:31:09.494Z,63.88
2022-09-15T07:33:36.342Z,62.23
2022-09-15T07:36:04.807Z,60.50
2022-09-15T07:38:31.394Z,60.01
2022-09-15T07:41:32.424Z,59.21
2022-09-15T07:44:00.397Z,59.65
2022-09-15T07:46:31.024Z,60.54
2022-09-15T07:48:57.812Z,61.43
2022-09-15T07:51:25.512Z,60.39
2022-09-15T07:53:53.082Z,62.23
2022-09-15T07:56:20.354Z,64.61
2022-09-15T07:58:48.334Z,63.85
2022-09-15T08:01:16.822Z,63.98
2022-09-15T08:03:46.398Z,64.15
2022-09-15T08:06:13.577Z,65.23
2022-09-15T08:08:41.417Z,63.98
2022-09-15T08:11:09.314Z,63.34
2022-09-15T08:13:36.204Z,63.87
2022-09-15T08:16:10.984Z,63.49
2022-09-15T08:18:39.228Z,64.56
2022-09-15T08:21:12.211Z,64.55
2022-09-15T08:23:39.273Z,65.32
2022-09-15T08:26:11.840Z,65.83
2022-09-15T08:28:40.631Z,65.88
2022-09-15T08:31:09.219Z,64.93
2022-09-15T08:33:36.061Z,64.55
2022-09-15T08:36:10.851Z,64.43
2022-09-15T08:38:41.513Z,66.71
2022-09-15T08:41:12.199Z,68.11
2022-09-15T08:43:48.408Z,69.55
2022-09-15T08:46:22.660Z,71.42
2022-09-15T08:49:02.759Z,66.54
2022-09-15T08:51:48.273Z,66.45
2022-09-15T08:54:21.330Z,67.44
2022-09-15T08:56:48.571Z,68.03
2022-09-15T08:59:17.541Z,67.96
2022-09-15T09:02:21.895Z,65.78
2022-09-15T09:05:25.048Z,59.62
2022-09-15T09:08:01.092Z,61.98
2022-09-15T09:10:53.270Z,65.71
2022-09-15T09:13:39.050Z,64.95
2022-09-15T09:16:27.281Z,61.66
2022-09-15T09:19:02.170Z,64.04
2022-09-15T09:21:37.678Z,65.51
2022-09-15T09:24:13.129Z,66.76
2022-09-15T09:26:40.224Z,66.47
2022-09-15T09:29:16.157Z,67.36
2022-09-15T09:31:45.849Z,62.46
2022-09-15T09:34:17.559Z,56.60
2022-09-15T09:36:44.217Z,50.07
2022-09-15T09:39:15.163Z,48.29
2022-09-15T09:41:42.496Z,56.25
2022-09-15T09:44:15.081Z,59.35
2022-09-15T09:46:42.399Z,61.24
2022-09-15T09:49:23.232Z,62.76
2022-09-15T09:51:55.305Z,64.99
2022-09-15T09:54:28.209Z,63.79
2022-09-15T09:56:57.096Z,64.67
2022-09-15T09:59:33.037Z,65.51
2022-09-15T10:02:05.964Z,65.15
2022-09-15T10:04:32.713Z,66.31
2022-09-15T10:06:59.460Z,66.63
2022-09-15T10:09:29.982Z,66.87
2022-09-15T10:12:04.030Z,67.39
2022-09-15T10:14:40.256Z,68.06
2022-09-15T10:17:20.182Z,69.12
2022-09-15T10:19:48.569Z,69.04
2022-09-15T10:22:31.798Z,68.46
2022-09-15T10:25:00.992Z,68.54
2022-09-15T10:27:35.997Z,65.34
2022-09-15T10:30:14.665Z,65.34
2022-09-15T10:32:43.226Z,65.78
2022-09-15T10:35:13.408Z,64.01
2022-09-15T10:37:49.070Z,64.59
2022-09-15T10:40:32.926Z,66.67
2022-09-15T10:43:22.688Z,67.94
2022-09-15T10:45:56.509Z,68.05
2022-09-15T10:48:43.956Z,67.74
2022-09-15T10:51:48.030Z,67.75
2022-09-15T10:54:14.726Z,68.88
2022-09-15T10:56:46.424Z,66.86
2022-09-15T10:59:37.581Z,66.21
2022-09-15T11:02:16.603Z,66.43
2022-09-15T11:05:11.711Z,68.09
2022-09-15T11:07:41.254Z,66.82
2022-09-15T11:10:36.967Z,68.12
2022-09-15T11:13:29.577Z,66.19
2022-09-15T11:16:22.417Z,65.27
2022-09-15T11:19:21.419Z,64.36
2022-09-15T11:21:56.482Z,64.77
2022-09-15T11:24:39.379Z,65.21
2022-09-15T11:27:16.484Z,63.84
2022-09-15T11:30:05.502Z,61.84
2022-09-15T11:32:41.430Z,62.21
2022-09-15T11:35:31.062Z,60.48
2022-09-15T11:38:42.829Z,60.63
2022-09-15T11:41:34.982Z,56.91
2022-09-15T11:44:19.403Z,57.57
2022-09-15T11:47:22.729Z,58.85
2022-09-15T11:50:16.585Z,57.75
2022-09-15T11:52:47.135Z,57.32
2022-09-15T11:55:32.226Z,57.34
2022-09-15T11:58:22.079Z,57.03
2022-09-15T12:01:00.688Z,58.85
2022-09-15T12:03:36.015Z,58.67
2022-09-15T12:06:11.629Z,59.64
2022-09-15T12:08:48.361Z,58.71
2022-09-15T12:11:22.149Z,59.91
2022-09-15T12:13:49.579Z,59.24
2022-09-15T12:16:17.416Z,60.22
2022-09-15T12:19:04.751Z,60.21
2022-09-15T12:21:57.753Z,59.88
2022-09-15T12:24:39.685Z,60.38
2022-09-15T12:27:17.612Z,59.55
2022-09-15T12:29:59.852Z,58.28
2022-09-15T12:32:29.878Z,57.63
2022-09-15T12:35:02.216Z,59.06
2022-09-15T12:37:35.492Z,58.96
2022-09-15T12:40:05.536Z,58.50
2022-09-15T12:42:34.613Z,58.65
2022-09-15T12:45:19.517Z,58.26
2022-09-15T12:48:26.823Z,59.24
2022-09-15T12:51:03.064Z,65.62
2022-09-15T12:53:37.619Z,68.45
2022-09-15T12:56:07.989Z,72.34
2022-09-15T12:58:36.832Z,75.70
2022-09-15T13:01:31.411Z,76.62
2022-09-15T13:03:58.068Z,78.27
2022-09-15T13:06:29.469Z,76.42
2022-09-15T13:09:02.225Z,75.57
2022-09-15T13:11:40.775Z,76.06
2022-09-15T13:14:28.527Z,76.00
2022-09-15T13:17:03.933Z,79.39
2022-09-15T13:19:33.342Z,75.38
2022-09-15T13:22:12.110Z,78.03
2022-09-15T13:25:02.086Z,78.56
2022-09-15T13:27:41.378Z,79.32
2022-09-15T13:30:26.907Z,79.69
2022-09-15T13:33:02.651Z,82.00
2022-09-15T13:35:52.421Z,83.00
2022-09-15T13:38:46.967Z,81.52
2022-09-15T13:41:35.136Z,81.95
2022-09-15T13:44:07.440Z,81.87
2022-09-15T13:46:50.930Z,81.41
2022-09-15T13:49:50.532Z,81.62
2022-09-15T13:52:22.862Z,79.35
2022-09-15T13:55:15.459Z,78.61
2022-09-15T14:00:35.194Z,75.03
2022-09-15T14:03:09.846Z,72.56
2022-09-15T14:05:37.367Z,75.68
2022-09-15T14:08:17.610Z,77.61
2022-09-15T14:10:48.313Z,74.13
2022-09-15T14:13:17.908Z,71.24
2022-09-15T14:16:03.349Z,71.92
2022-09-15T14:18:40.933Z,73.23
2022-09-15T14:21:17.531Z,74.29
2022-09-15T14:23:47.585Z,73.83
2022-09-15T14:26:21.072Z,71.03
2022-09-15T14:29:05.813Z,74.99
2022-09-15T14:31:37.623Z,72.93
2022-09-15T14:34:09.704Z,73.57
2022-09-15T14:36:36.435Z,71.72
2022-09-15T14:39:15.889Z,70.36
2022-09-15T14:41:42.634Z,72.92
2022-09-15T14:47:27.828Z,73.39
2022-09-15T14:50:32.490Z,74.11
2022-09-15T14:53:06.773Z,71.26
2022-09-15T14:55:39.585Z,73.17
2022-09-15T14:58:23.529Z,72.02
2022-09-15T15:00:53.075Z,71.72
2022-09-15T15:03:43.126Z,72.71
2022-09-15T15:06:33.071Z,72.23
2022-09-15T15:09:06.671Z,71.63
2022-09-15T15:11:35.898Z,71.53
2022-09-15T15:14:04.523Z,74.00
2022-09-15T15:16:32.091Z,72.63
2022-09-15T15:18:58.801Z,72.86
2022-09-15T15:21:43.969Z,71.30
2022-09-15T15:24:13.579Z,71.80
2022-09-15T15:26:45.634Z,71.83
2022-09-15T15:29:43.141Z,70.72
2022-09-15T15:32:20.188Z,70.75
2022-09-15T15:34:52.946Z,71.23
2022-09-15T15:37:26.328Z,71.75
2022-09-15T15:39:54.520Z,71.97
2022-09-15T15:42:21.620Z,72.67
2022-09-15T15:45:01.822Z,74.26
2022-09-15T15:47:36.843Z,75.25
2022-09-15T15:50:16.580Z,73.46
2022-09-15T15:52:43.995Z,72.26
2022-09-15T15:55:17.433Z,72.71
2022-09-15T15:57:45.449Z,70.86
2022-09-15T16:00:21.337Z,70.30
2022-09-15T16:02:48.988Z,71.40
2022-09-15T16:05:15.670Z,71.94
2022-09-15T16:07:44.237Z,72.51
2022-09-15T16:10:17.082Z,72.65
2022-09-15T16:12:43.818Z,72.47
2022-09-15T16:15:20.288Z,72.52
2022-09-15T16:17:47.827Z,73.15
2022-09-15T16:20:19.804Z,73.22
2022-09-15T16:22:46.853Z,71.42
2022-09-15T16:25:17.268Z,71.09
2022-09-15T16:27:44.176Z,71.08
2022-09-15T16:30:13.843Z,69.56
2022-09-15T16:32:41.264Z,70.48
2022-09-15T16:35:51.244Z,70.99
2022-09-15T16:38:20.053Z,71.50
2022-09-15T16:40:48.127Z,72.06
2022-09-15T16:43:21.506Z,71.95
2022-09-15T16:45:49.288Z,72.21
2022-09-15T16:48:15.981Z,72.39
2022-09-15T16:51:01.210Z,72.24
2022-09-15T16:53:31.016Z,71.51
2022-09-15T16:55:58.591Z,71.51
2022-09-15T16:58:25.240Z,70.92
2022-09-15T17:00:52.886Z,71.58
2022-09-15T17:03:22.736Z,71.42
2022-09-15T17:05:54.261Z,71.55
2022-09-15T17:08:29.606Z,72.27
2022-09-15T17:10:58.583Z,72.47
2022-09-15T17:13:30.095Z,72.44
2022-09-15T17:15:58.545Z,72.45
2022-09-15T17:18:25.866Z,73.36
2022-09-15T17:20:52.571Z,72.52
2022-09-15T17:23:45.342Z,73.34
2022-09-15T17:26:15.177Z,73.41
2022-09-15T17:28:42.270Z,72.96
2022-09-15T17:31:15.518Z,72.20
2022-09-15T17:33:42.942Z,72.36
2022-09-15T17:36:10.074Z,72.99
2022-09-15T17:38:36.995Z,73.25
2022-09-15T17:41:03.692Z,72.44
2022-09-15T17:43:31.459Z,72.31
2022-09-15T17:45:58.596Z,72.48
2022-09-15T17:48:25.419Z,74.87
2022-09-15T17:50:52.495Z,75.77
2022-09-15T17:53:22.538Z,76.27
2022-09-15T17:55:50.864Z,77.28
2022-09-15T17:58:17.811Z,77.00
2022-09-15T18:00:45.346Z,78.13
2022-09-15T18:03:17.773Z,79.45
2022-09-15T18:05:44.415Z,80.82
2022-09-15T18:08:11.138Z,81.81
2022-09-15T18:10:37.834Z,81.61
2022-09-15T18:13:05.658Z,81.45
2022-09-15T18:15:34.855Z,80.98
2022-09-15T18:18:03.904Z,80.38
2022-09-15T18:20:32.834Z,79.86
2022-09-15T18:23:00.180Z,79.92
2022-09-15T18:25:31.186Z,80.39
2022-09-15T18:27:59.172Z,80.69
2022-09-15T18:30:31.443Z,80.24
2022-09-15T18:32:59.233Z,80.41
2022-09-15T18:35:26.437Z,80.08
2022-09-15T18:37:59.612Z,80.51
2022-09-15T18:40:27.810Z,80.69
2022-09-15T18:42:56.479Z,81.22
2022-09-15T18:45:23.374Z,81.16
2022-09-15T18:47:52.144Z,80.94
2022-09-15T18:50:21.801Z,80.99
2022-09-15T18:52:49.408Z,81.71
2022-09-15T18:55:18.969Z,84.43
2022-09-15T18:57:46.030Z,84.41
2022-09-15T19:00:16.716Z,85.13
2022-09-15T19:02:44.419Z,85.13
2022-09-15T19:05:12.184Z,85.38
2022-09-15T19:07:39.002Z,85.74
2022-09-15T19:10:07.386Z,85.80
2022-09-15T19:12:37.870Z,86.25
2022-09-15T19:15:10.763Z,87.04
2022-09-15T19:17:39.285Z,86.74
2022-09-15T19:20:08.183Z,86.74
2022-09-15T19:22:36.010Z,86.54
2022-09-15T19:25:03.559Z,86.59
2022-09-15T19:27:30.363Z,87.09
2022-09-15T19:29:57.031Z,86.83
2022-09-15T19:32:24.471Z,87.32
2022-09-15T19:34:51.130Z,87.42
2022-09-15T19:37:19.818Z,87.20
2022-09-15T19:39:47.418Z,86.86
2022-09-15T19:44:42.475Z,87.00
2022-09-15T19:47:09.429Z,86.58
2022-09-15T19:49:36.100Z,86.96
2022-09-15T19:52:02.955Z,88.20
2022-09-15T19:54:30.658Z,88.36
2022-09-15T19:56:57.788Z,88.41
2022-09-15T19:59:30.176Z,89.22
2022-09-15T20:01:57.922Z,89.10
2022-09-15T20:04:24.698Z,89.13
2022-09-15T20:06:51.824Z,88.38
2022-09-15T20:09:18.778Z,87.85
2022-09-15T20:11:45.598Z,88.42
2022-09-15T20:14:12.394Z,87.98
2022-09-15T20:16:39.497Z,89.86
2022-09-15T20:19:06.576Z,89.18
2022-09-15T20:21:51.623Z,88.07
2022-09-15T20:24:19.708Z,88.04
2022-09-15T20:26:46.418Z,87.63
2022-09-15T20:29:14.351Z,87.86
2022-09-15T20:31:41.492Z,87.78
2022-09-15T20:34:08.213Z,88.25
2022-09-15T20:36:37.237Z,88.29
2022-09-15T20:39:08.701Z,87.76
2022-09-15T20:41:35.556Z,88.30
2022-09-15T20:44:02.451Z,88.12
2022-09-15T20:46:29.392Z,88.52
2022-09-15T20:48:56.046Z,88.72
2022-09-15T20:51:28.189Z,88.87
2022-09-15T20:53:57.074Z,88.40
2022-09-15T20:56:27.057Z,88.74
2022-09-15T20:58:55.501Z,88.48
2022-09-15T21:01:43.546Z,88.07
2022-09-15T21:04:10.962Z,88.15
2022-09-15T21:06:37.960Z,88.90
2022-09-15T21:09:06.152Z,88.74
2022-09-15T21:11:33.100Z,88.73
2022-09-15T21:13:59.902Z,89.13
2022-09-15T21:16:28.269Z,89.00
2022-09-15T21:18:57.241Z,88.99
2022-09-15T21:21:30.025Z,89.14
2022-09-15T21:24:00.201Z,89.55
2022-09-15T21:26:28.776Z,89.21
2022-09-15T21:28:57.165Z,89.17
2022-09-15T21:31:26.442Z,89.03
2022-09-15T21:33:54.134Z,89.49
2022-09-15T21:36:26.317Z,89.77
2022-09-15T21:38:54.762Z,89.22
2022-09-15T21:41:23.499Z,89.59
2022-09-15T21:43:55.242Z,89.31
2022-09-15T21:46:24.548Z,89.40
2022-09-15T21:48:51.800Z,89.72
2022-09-15T21:51:24.698Z,89.99
2022-09-15T21:53:53.617Z,90.48
2022-09-15T21:56:20.912Z,90.35
2022-09-15T21:58:47.845Z,90.19
2022-09-15T22:01:19.588Z,90.27
2022-09-15T22:03:51.849Z,90.10
2022-09-15T22:06:21.582Z,89.72
2022-09-15T22:08:48.233Z,90.29
2022-09-15T22:11:15.084Z,90.46
2022-09-15T22:13:44.535Z,91.04
2022-09-15T22:16:15.253Z,91.17
2022-09-15T22:18:42.936Z,91.86
2022-09-15T22:21:11.357Z,92.04
2022-09-15T22:23:39.035Z,91.71
2022-09-15T22:26:11.567Z,93.29
2022-09-15T22:28:38.621Z,93.27
2022-09-15T22:31:07.878Z,92.95
2022-09-15T22:33:35.062Z,93.27
2022-09-15T22:36:02.509Z,93.21
2022-09-15T22:38:30.693Z,93.15
2022-09-15T22:41:03.988Z,92.98
2022-09-15T22:43:30.607Z,93.71
2022-09-15T22:45:57.337Z,94.03
2022-09-15T22:48:24.238Z,93.19
2022-09-15T22:50:50.866Z,92.68
2022-09-15T22:53:17.519Z,91.92
2022-09-15T22:55:44.189Z,91.81
2022-09-15T22:58:10.880Z,91.95
2022-09-15T23:00:38.666Z,92.76
2022-09-15T23:03:06.859Z,92.42
2022-09-15T23:05:34.465Z,92.13
2022-09-15T23:08:01.255Z,91.78
2022-09-15T23:10:28.259Z,91.79
2022-09-15T23:12:54.866Z,91.76
2022-09-15T23:15:21.499Z,92.21
2022-09-15T23:17:48.119Z,92.53
2022-09-15T23:20:14.862Z,92.07
2022-09-15T23:22:41.447Z,92.18
2022-09-15T23:25:08.555Z,92.23
2022-09-15T23:27:35.278Z,91.92
2022-09-15T23:30:01.861Z,91.80
2022-09-15T23:32:28.496Z,92.00
2022-09-15T23:34:55.194Z,92.25
2022-09-15T23:37:21.812Z,92.13
2022-09-15T23:39:48.512Z,92.30
2022-09-15T23:42:18.768Z,92.33
2022-09-15T23:44:45.826Z,93.20
2022-09-15T23:47:12.461Z,92.33
2022-09-15T23:49:39.100Z,91.71
2022-09-15T23:52:05.710Z,91.58
2022-09-15T23:54:32.300Z,91.45
2022-09-15T23:56:59.054Z,91.72
2022-09-15T23:59:25.683Z,91.50
